Seabourn Odyssey — C6XC6 — position and weather

sailwx.info

Track history (hours):
 
Tides and Currents Weather Stations Pressure Air Temp Water Temp Dewpoint Dewpoint Depression Visibility Wind Speed Wind Dir Waves Ship Positions

Seabourn Odyssey

Last reported at 2017-Apr-11 07:14 UTC. Time now 2017-Apr-24 03:22 UTC.
Position N 17°20' W 062°12'.
Warning: this ship's position is 12 days out of date.

Length 198 m; draft 6.7 m.

Type: Ship. MMSI: 309416000.

Date/timePositionNaut miles runAvg speedWind from/ knotsBaromVisibWave heightAir tempDewpointWater temp
2017-Apr-11 07:14N 17°20' W 062°12'2 6.7
2017-Apr-11 07:00N 17°21' W 062°14'3 6.8
2017-Apr-11 06:30N 17°23' W 062°17'3 6.9
2017-Apr-11 06:00N 17°25' W 062°20'4 7.0
2017-Apr-11 05:28N 17°27' W 062°23'42 8.7
2017-Apr-11 00:37N 17°51' W 062°59'211.9
2017-Apr-11 00:28N 17°52' W 063°01'611.5
2017-Apr-10 23:58N 17°56' W 063°06'511.4
2017-Apr-10 23:29N 17°59' W 063°10'611.5
2017-Apr-10 22:57N 18°05' W 063°13'511.2
2017-Apr-10 22:28N 18°10' W 063°14'510.5
2017-Apr-10 22:00N 18°13' W 063°10'3 0.3
2017-Apr-10 10:45N 18°14' W 063°07'2 6.7
2017-Apr-10 10:26N 18°13' W 063°09'3 6.9
2017-Apr-10 10:00N 18°12' W 063°12'4 7.0
2017-Apr-10 09:29N 18°10' W 063°15'3 6.0
2017-Apr-10 08:55N 18°07' W 063°17'3 6.6
2017-Apr-10 08:27N 18°04' W 063°16'3 6.7
2017-Apr-10 07:57N 18°01' W 063°16'3 6.7
2017-Apr-10 07:29N 17°58' W 063°15'3 6.8
2017-Apr-10 07:00N 17°55' W 063°14'4 6.7
2017-Apr-10 06:29N 17°52' W 063°11'3 6.6
2017-Apr-10 06:00N 17°49' W 063°09'3 6.6
2017-Apr-10 05:30N 17°47' W 063°07'3 6.7
2017-Apr-10 04:59N 17°44' W 063°05'12 0.5
2017-Apr-09 03:49N 17°56' W 063°04'2 7.0
2017-Apr-09 03:30N 17°58' W 063°05'3 0.2
2017-Apr-08 10:12N 18°01' W 063°03'1 5.3
2017-Apr-08 10:00N 18°00' W 063°04'4 7.3
2017-Apr-08 09:28N 18°01' W 063°08'4 7.3
2017-Apr-08 08:58N 18°02' W 063°12'3 7.3
2017-Apr-08 08:30N 18°04' W 063°15'4 7.3
2017-Apr-08 08:01N 18°05' W 063°18'4 7.1
2017-Apr-08 07:30N 18°07' W 063°22'4 7.0
2017-Apr-08 06:57N 18°09' W 063°25'61 7.9
2017-Apr-07 23:14N 18°32' W 064°25'412.1
2017-Apr-07 22:53N 18°32' W 064°29'911.0
2017-Apr-07 22:04N 18°29' W 064°38'111.4
2017-Apr-07 22:00N 18°29' W 064°39'510.8
2017-Apr-07 21:30N 18°26' W 064°43'2 1.9
2017-Apr-07 20:38N 18°26' W 064°45'0 0.0
2017-Apr-07 20:26N 18°26' W 064°45'0 0.0
2017-Apr-07 19:38N 18°26' W 064°45'0 0.0
2017-Apr-07 19:14N 18°26' W 064°45'0 0.0
2017-Apr-07 18:56N 18°26' W 064°45'0 0.0
2017-Apr-07 18:23N 18°26' W 064°45'0 0.0
2017-Apr-07 17:50N 18°26' W 064°45'0 0.0
2017-Apr-07 17:26N 18°26' W 064°45'0 0.0
2017-Apr-07 16:56N 18°26' W 064°45'0 0.0
2017-Apr-07 16:20N 18°26' W 064°45'0 0.0
2017-Apr-07 15:56N 18°26' W 064°45'0 0.0
2017-Apr-07 15:26N 18°26' W 064°45'0 0.0
2017-Apr-07 14:59N 18°26' W 064°45'0 0.0
2017-Apr-07 13:59N 18°26' W 064°45'0 0.0
2017-Apr-07 13:29N 18°26' W 064°45'0 0.0
2017-Apr-07 12:59N 18°26' W 064°45'0 0.0
2017-Apr-07 12:26N 18°26' W 064°45'0 0.0
2017-Apr-07 11:56N 18°26' W 064°45'0 0.0
2017-Apr-07 11:26N 18°26' W 064°45'0 1.1
2017-Apr-07 11:00N 18°26' W 064°45'4 8.8
2017-Apr-07 10:30N 18°28' W 064°40'611.2
2017-Apr-07 10:00N 18°30' W 064°35'611.6
2017-Apr-07 09:30N 18°32' W 064°29'811.7
2017-Apr-07 08:49N 18°32' W 064°21'511.6
2017-Apr-07 08:21N 18°31' W 064°16'411.8
2017-Apr-07 08:00N 18°29' W 064°12'4411.9
2017-Apr-07 04:20N 18°02' W 063°35'512.0
2017-Apr-07 03:53N 17°59' W 063°31'511.9
2017-Apr-07 03:30N 17°56' W 063°27'911.9
2017-Apr-07 02:44N 17°51' W 063°19'411.9
2017-Apr-07 02:25N 17°48' W 063°16'512.0
2017-Apr-07 01:58N 17°45' W 063°12'611.8
2017-Apr-07 01:30N 17°42' W 063°07'47 1.1
2017-Apr-05 07:19N 17°22' W 062°22'1013.8
2017-Apr-05 06:34N 17°13' W 062°16'113.9
2017-Apr-05 06:30N 17°12' W 062°16'713.7
2017-Apr-05 06:00N 17°06' W 062°12'713.7
2017-Apr-05 05:30N 16°60' W 062°09'714.1
2017-Apr-05 05:01N 16°53' W 062°06'714.1
2017-Apr-05 04:30N 16°47' W 062°04'713.8
2017-Apr-05 04:00N 16°40' W 062°01'713.9
2017-Apr-05 03:30N 16°34' W 061°59'713.8
2017-Apr-05 03:01N 16°27' W 061°57'2615.0
2017-Apr-05 01:17N 16°02' W 061°48'18 7.7
2017-Apr-04 23:00N 16°09' W 061°32'4 6.6
2017-Apr-04 22:20N 16°14' W 061°32'0 0.0
2017-Apr-04 11:23N 16°14' W 061°32'3 7.7
2017-Apr-04 11:00N 16°11' W 061°32'35 5.2
2017-Apr-04 04:17N 15°37' W 061°40'  
Track history (hours):
 
Tides and Currents Weather Stations Pressure Air Temp Water Temp Dewpoint Dewpoint Depression Visibility Wind Speed Wind Dir Waves Ship Positions

Seabourn Odyssey

Last reported at 2017-Apr-11 07:14 UTC. Time now 2017-Apr-24 03:22 UTC.
Position N 17°20' W 062°12'.
Warning: this ship's position is 12 days out of date.

Length 198 m; draft 6.7 m.

Type: Ship. MMSI: 309416000.

Date/timePositionNaut miles runAvg speedWind from/ knotsBaromVisibWave heightAir tempDewpointWater temp
2017-Apr-11 07:14N 17°20' W 062°12'2 6.7
2017-Apr-11 07:00N 17°21' W 062°14'3 6.8
2017-Apr-11 06:30N 17°23' W 062°17'3 6.9
2017-Apr-11 06:00N 17°25' W 062°20'4 7.0
2017-Apr-11 05:28N 17°27' W 062°23'42 8.7
2017-Apr-11 00:37N 17°51' W 062°59'211.9
2017-Apr-11 00:28N 17°52' W 063°01'611.5
2017-Apr-10 23:58N 17°56' W 063°06'511.4
2017-Apr-10 23:29N 17°59' W 063°10'611.5
2017-Apr-10 22:57N 18°05' W 063°13'511.2
2017-Apr-10 22:28N 18°10' W 063°14'510.5
2017-Apr-10 22:00N 18°13' W 063°10'3 0.3
2017-Apr-10 10:45N 18°14' W 063°07'2 6.7
2017-Apr-10 10:26N 18°13' W 063°09'3 6.9
2017-Apr-10 10:00N 18°12' W 063°12'4 7.0
2017-Apr-10 09:29N 18°10' W 063°15'3 6.0
2017-Apr-10 08:55N 18°07' W 063°17'3 6.6
2017-Apr-10 08:27N 18°04' W 063°16'3 6.7
2017-Apr-10 07:57N 18°01' W 063°16'3 6.7
2017-Apr-10 07:29N 17°58' W 063°15'3 6.8
2017-Apr-10 07:00N 17°55' W 063°14'4 6.7
2017-Apr-10 06:29N 17°52' W 063°11'3 6.6
2017-Apr-10 06:00N 17°49' W 063°09'3 6.6
2017-Apr-10 05:30N 17°47' W 063°07'3 6.7
2017-Apr-10 04:59N 17°44' W 063°05'12 0.5
2017-Apr-09 03:49N 17°56' W 063°04'2 7.0
2017-Apr-09 03:30N 17°58' W 063°05'3 0.2
2017-Apr-08 10:12N 18°01' W 063°03'1 5.3
2017-Apr-08 10:00N 18°00' W 063°04'4 7.3
2017-Apr-08 09:28N 18°01' W 063°08'4 7.3
2017-Apr-08 08:58N 18°02' W 063°12'3 7.3
2017-Apr-08 08:30N 18°04' W 063°15'4 7.3
2017-Apr-08 08:01N 18°05' W 063°18'4 7.1
2017-Apr-08 07:30N 18°07' W 063°22'4 7.0
2017-Apr-08 06:57N 18°09' W 063°25'61 7.9
2017-Apr-07 23:14N 18°32' W 064°25'412.1
2017-Apr-07 22:53N 18°32' W 064°29'911.0
2017-Apr-07 22:04N 18°29' W 064°38'111.4
2017-Apr-07 22:00N 18°29' W 064°39'510.8
2017-Apr-07 21:30N 18°26' W 064°43'2 1.9
2017-Apr-07 20:38N 18°26' W 064°45'0 0.0
2017-Apr-07 20:26N 18°26' W 064°45'0 0.0
2017-Apr-07 19:38N 18°26' W 064°45'0 0.0
2017-Apr-07 19:14N 18°26' W 064°45'0 0.0
2017-Apr-07 18:56N 18°26' W 064°45'0 0.0
2017-Apr-07 18:23N 18°26' W 064°45'0 0.0
2017-Apr-07 17:50N 18°26' W 064°45'0 0.0
2017-Apr-07 17:26N 18°26' W 064°45'0 0.0
2017-Apr-07 16:56N 18°26' W 064°45'0 0.0
2017-Apr-07 16:20N 18°26' W 064°45'0 0.0
2017-Apr-07 15:56N 18°26' W 064°45'0 0.0
2017-Apr-07 15:26N 18°26' W 064°45'0 0.0
2017-Apr-07 14:59N 18°26' W 064°45'0 0.0
2017-Apr-07 13:59N 18°26' W 064°45'0 0.0
2017-Apr-07 13:29N 18°26' W 064°45'0 0.0
2017-Apr-07 12:59N 18°26' W 064°45'0 0.0
2017-Apr-07 12:26N 18°26' W 064°45'0 0.0
2017-Apr-07 11:56N 18°26' W 064°45'0 0.0
2017-Apr-07 11:26N 18°26' W 064°45'0 1.1
2017-Apr-07 11:00N 18°26' W 064°45'4 8.8
2017-Apr-07 10:30N 18°28' W 064°40'611.2
2017-Apr-07 10:00N 18°30' W 064°35'611.6
2017-Apr-07 09:30N 18°32' W 064°29'811.7
2017-Apr-07 08:49N 18°32' W 064°21'511.6
2017-Apr-07 08:21N 18°31' W 064°16'411.8
2017-Apr-07 08:00N 18°29' W 064°12'4411.9
2017-Apr-07 04:20N 18°02' W 063°35'512.0
2017-Apr-07 03:53N 17°59' W 063°31'511.9
2017-Apr-07 03:30N 17°56' W 063°27'911.9
2017-Apr-07 02:44N 17°51' W 063°19'411.9
2017-Apr-07 02:25N 17°48' W 063°16'512.0
2017-Apr-07 01:58N 17°45' W 063°12'611.8
2017-Apr-07 01:30N 17°42' W 063°07'47 1.1
2017-Apr-05 07:19N 17°22' W 062°22'1013.8
2017-Apr-05 06:34N 17°13' W 062°16'113.9
2017-Apr-05 06:30N 17°12' W 062°16'713.7
2017-Apr-05 06:00N 17°06' W 062°12'713.7
2017-Apr-05 05:30N 16°60' W 062°09'714.1
2017-Apr-05 05:01N 16°53' W 062°06'714.1
2017-Apr-05 04:30N 16°47' W 062°04'713.8
2017-Apr-05 04:00N 16°40' W 062°01'713.9
2017-Apr-05 03:30N 16°34' W 061°59'713.8
2017-Apr-05 03:01N 16°27' W 061°57'2615.0
2017-Apr-05 01:17N 16°02' W 061°48'18 7.7
2017-Apr-04 23:00N 16°09' W 061°32'4 6.6
2017-Apr-04 22:20N 16°14' W 061°32'0 0.0
2017-Apr-04 11:23N 16°14' W 061°32'3 7.7
2017-Apr-04 11:00N 16°11' W 061°32'35 5.2
2017-Apr-04 04:17N 15°37' W 061°40'  

Dump ship's entire track history